createdAt,value
2022-07-28T00:00:08.339Z,15.82
2022-07-28T00:02:13.063Z,16.48
2022-07-28T00:04:19.654Z,16.52
2022-07-28T00:06:24.357Z,20.40
2022-07-28T00:08:28.701Z,17.05
2022-07-28T00:10:33.508Z,16.95
2022-07-28T00:12:37.944Z,15.57
2022-07-28T00:14:42.677Z,16.15
2022-07-28T00:16:47.306Z,17.42
2022-07-28T00:18:52.178Z,18.70
2022-07-28T00:20:57.707Z,16.83
2022-07-28T00:23:02.197Z,16.58
2022-07-28T00:25:07.099Z,17.23
2022-07-28T00:27:11.826Z,15.05
2022-07-28T00:29:16.326Z,15.75
2022-07-28T00:31:21.398Z,17.50
2022-07-28T00:33:28.022Z,19.90
2022-07-28T00:35:33.010Z,20.45
2022-07-28T00:37:39.936Z,17.40
2022-07-28T00:39:45.567Z,19.58
2022-07-28T00:41:52.068Z,18.83
2022-07-28T00:43:56.756Z,17.65
2022-07-28T00:46:03.199Z,19.98
2022-07-28T00:48:10.501Z,16.13
2022-07-28T00:50:14.955Z,21.17
2022-07-28T00:52:22.152Z,18.40
2022-07-28T00:54:28.353Z,15.68
2022-07-28T00:56:33.298Z,18.42
2022-07-28T00:58:39.447Z,17.10
2022-07-28T01:00:44.245Z,12.90
2022-07-28T01:02:48.617Z,15.73
2022-07-28T01:04:53.242Z,13.90
2022-07-28T01:07:16.992Z,12.05
2022-07-28T01:09:39.809Z,11.93
2022-07-28T01:12:00.309Z,12.82
2022-07-28T01:14:14.390Z,12.80
2022-07-28T01:16:23.626Z,13.13
2022-07-28T01:18:31.466Z,18.23
2022-07-28T01:21:06.021Z,16.70
2022-07-28T01:23:49.949Z,16.42
2022-07-28T01:26:23.418Z,12.30
2022-07-28T01:28:59.989Z,11.70
2022-07-28T01:31:07.141Z,11.30
2022-07-28T01:33:18.789Z,13.80
2022-07-28T01:35:27.310Z,14.65
2022-07-28T01:37:32.019Z,10.93
2022-07-28T01:39:37.559Z,11.85
2022-07-28T01:41:42.301Z,11.15
2022-07-28T01:43:49.100Z,10.95
2022-07-28T01:45:54.525Z,12.80
2022-07-28T01:47:59.354Z,12.38
2022-07-28T01:50:06.557Z,14.27
2022-07-28T01:52:11.693Z,12.20
2022-07-28T01:54:16.229Z,12.60
2022-07-28T01:56:21.851Z,10.90
2022-07-28T01:58:26.541Z,12.85
2022-07-28T02:00:31.118Z,10.43
2022-07-28T02:02:35.601Z,13.05
2022-07-28T02:04:42.037Z,10.68
2022-07-28T02:06:46.749Z,10.25
2022-07-28T02:08:51.415Z,13.43
2022-07-28T02:11:09.827Z,100.47
2022-07-28T02:13:14.699Z,28.17
2022-07-28T02:15:19.188Z,20.23
2022-07-28T02:17:28.765Z,12.30
2022-07-28T02:19:33.213Z,11.02
2022-07-28T02:21:38.009Z,11.60
2022-07-28T02:23:44.978Z,9.95
2022-07-28T02:25:50.201Z,11.77
2022-07-28T02:28:06.864Z,10.40
2022-07-28T02:30:19.690Z,9.95
2022-07-28T02:32:46.268Z,11.48
2022-07-28T02:34:52.655Z,10.30
2022-07-28T02:37:00.027Z,8.20
2022-07-28T02:39:25.519Z,9.73
2022-07-28T02:41:31.889Z,12.27
2022-07-28T02:43:49.137Z,19.38
2022-07-28T02:45:55.307Z,14.80
2022-07-28T02:48:02.994Z,12.07
2022-07-28T02:50:07.815Z,9.43
2022-07-28T02:52:12.527Z,9.30
2022-07-28T02:54:18.886Z,11.35
2022-07-28T02:56:23.918Z,11.68
2022-07-28T02:58:28.812Z,10.60
2022-07-28T03:00:33.643Z,10.27
2022-07-28T03:02:38.455Z,12.38
2022-07-28T03:04:55.428Z,8.95
2022-07-28T03:07:01.877Z,8.73
2022-07-28T03:09:06.959Z,9.02
2022-07-28T03:11:13.375Z,9.70
2022-07-28T03:13:19.480Z,8.77
2022-07-28T03:15:26.041Z,10.73
2022-07-28T03:17:32.303Z,8.40
2022-07-28T03:19:36.663Z,8.05
2022-07-28T03:21:44.971Z,8.70
2022-07-28T03:23:49.681Z,8.60
2022-07-28T03:25:54.158Z,8.75
2022-07-28T03:28:01.242Z,10.23
2022-07-28T03:30:08.623Z,9.07
2022-07-28T03:32:14.692Z,12.18
2022-07-28T03:34:21.059Z,9.48
2022-07-28T03:36:27.943Z,7.35
2022-07-28T03:38:38.730Z,9.25
2022-07-28T03:40:46.195Z,8.73
2022-07-28T03:42:52.059Z,7.47
2022-07-28T03:44:58.363Z,5.57
2022-07-28T03:47:03.473Z,7.30
2022-07-28T03:49:09.963Z,6.45
2022-07-28T03:51:15.229Z,6.65
2022-07-28T03:53:26.429Z,7.85
2022-07-28T03:55:31.172Z,5.65
2022-07-28T03:57:35.475Z,7.65
2022-07-28T03:59:42.323Z,6.82
2022-07-28T04:01:46.835Z,10.45
2022-07-28T04:03:53.268Z,9.52
2022-07-28T04:06:00.029Z,8.35
2022-07-28T04:08:04.753Z,7.72
2022-07-28T04:10:12.097Z,6.82
2022-07-28T04:12:18.925Z,6.53
2022-07-28T04:14:24.043Z,6.97
2022-07-28T04:16:31.174Z,7.95
2022-07-28T04:18:37.615Z,6.15
2022-07-28T04:20:44.308Z,7.40
2022-07-28T04:22:49.065Z,7.70
2022-07-28T04:24:55.637Z,9.15
2022-07-28T04:27:00.610Z,7.05
2022-07-28T04:29:05.418Z,7.68
2022-07-28T04:31:12.135Z,7.47
2022-07-28T04:33:17.120Z,7.38
2022-07-28T04:35:21.834Z,6.30
2022-07-28T04:37:27.927Z,7.68
2022-07-28T04:39:37.748Z,5.80
2022-07-28T04:41:44.040Z,6.72
2022-07-28T04:43:50.211Z,5.60
2022-07-28T04:45:55.335Z,7.50
2022-07-28T04:48:00.339Z,6.65
2022-07-28T04:50:06.845Z,7.60
2022-07-28T04:52:11.461Z,6.57
2022-07-28T04:54:17.161Z,6.13
2022-07-28T04:56:21.835Z,6.80
2022-07-28T04:58:26.379Z,5.60
2022-07-28T05:00:31.130Z,5.30
2022-07-28T05:02:35.466Z,4.80
2022-07-28T05:04:40.356Z,8.45
2022-07-28T05:06:44.810Z,5.88
2022-07-28T05:08:51.985Z,5.80
2022-07-28T05:10:57.272Z,6.32
2022-07-28T05:13:07.300Z,6.82
2022-07-28T05:15:11.924Z,6.22
2022-07-28T05:17:16.566Z,5.75
2022-07-28T05:19:20.963Z,5.20
2022-07-28T05:21:25.705Z,7.63
2022-07-28T05:23:30.175Z,7.05
2022-07-28T05:25:34.654Z,5.22
2022-07-28T05:27:41.192Z,6.43
2022-07-28T05:29:47.129Z,5.60
2022-07-28T05:31:52.005Z,7.13
2022-07-28T05:33:56.431Z,6.50
2022-07-28T05:36:01.928Z,6.25
2022-07-28T05:38:10.512Z,7.93
2022-07-28T05:40:17.081Z,5.95
2022-07-28T05:42:21.528Z,5.32
2022-07-28T05:44:26.586Z,5.47
2022-07-28T05:46:31.225Z,7.00
2022-07-28T05:48:36.023Z,6.13
2022-07-28T05:50:40.888Z,5.68
2022-07-28T05:52:45.588Z,5.30
2022-07-28T05:54:50.205Z,5.93
2022-07-28T05:56:56.670Z,5.55
2022-07-28T05:59:02.283Z,7.28
2022-07-28T06:01:06.855Z,7.43
2022-07-28T06:03:11.589Z,5.28
2022-07-28T06:05:18.109Z,6.32
2022-07-28T06:07:22.843Z,5.57
2022-07-28T06:09:47.229Z,6.00
2022-07-28T06:11:52.013Z,7.20
2022-07-28T06:13:56.521Z,5.90
2022-07-28T06:16:01.190Z,5.60
2022-07-28T06:18:05.880Z,7.53
2022-07-28T06:20:11.391Z,5.78
2022-07-28T06:22:17.333Z,4.95
2022-07-28T06:24:22.337Z,3.95
2022-07-28T06:26:26.664Z,7.10
2022-07-28T06:28:31.358Z,7.30
2022-07-28T06:30:36.305Z,5.88
2022-07-28T06:32:40.949Z,5.45
2022-07-28T06:34:47.231Z,4.80
2022-07-28T06:36:51.858Z,5.63
2022-07-28T06:38:56.378Z,5.07
2022-07-28T06:41:03.169Z,6.03
2022-07-28T06:43:08.122Z,5.45
2022-07-28T06:45:21.338Z,4.20
2022-07-28T06:47:26.109Z,4.43
2022-07-28T06:49:30.673Z,5.22
2022-07-28T06:51:38.334Z,4.20
2022-07-28T06:53:43.382Z,6.80
2022-07-28T06:55:51.868Z,4.90
2022-07-28T06:57:58.426Z,3.50
2022-07-28T07:00:07.849Z,4.78
2022-07-28T07:02:12.743Z,3.47
2022-07-28T07:04:17.371Z,4.68
2022-07-28T07:06:22.517Z,4.20
2022-07-28T07:08:27.080Z,3.95
2022-07-28T07:10:31.961Z,4.90
2022-07-28T07:12:38.424Z,4.35
2022-07-28T07:14:43.835Z,7.63
2022-07-28T07:16:48.617Z,4.97
2022-07-28T07:18:55.516Z,4.38
2022-07-28T07:21:03.697Z,5.43
2022-07-28T07:23:09.123Z,6.30
2022-07-28T07:25:16.588Z,4.65
2022-07-28T07:27:21.172Z,4.50
2022-07-28T07:29:25.754Z,5.57
2022-07-28T07:31:37.833Z,4.55
2022-07-28T07:33:44.126Z,4.10
2022-07-28T07:35:49.711Z,4.28
2022-07-28T07:37:57.104Z,4.43
2022-07-28T07:40:02.353Z,6.32
2022-07-28T07:42:07.640Z,6.60
2022-07-28T07:44:14.328Z,5.43
2022-07-28T07:46:21.534Z,3.85
2022-07-28T07:48:26.127Z,5.93
2022-07-28T07:50:32.928Z,4.38
2022-07-28T07:52:39.299Z,6.80
2022-07-28T07:54:44.211Z,5.72
2022-07-28T07:56:50.580Z,4.20
2022-07-28T07:58:57.393Z,4.05
2022-07-28T08:01:02.037Z,3.80
2022-07-28T08:03:11.132Z,3.42
2022-07-28T08:05:20.718Z,4.13
2022-07-28T08:07:39.683Z,4.85
2022-07-28T08:09:46.288Z,4.90
2022-07-28T08:11:52.768Z,4.78
2022-07-28T08:13:57.608Z,4.80
2022-07-28T08:16:04.962Z,4.82
2022-07-28T08:18:11.211Z,4.40
2022-07-28T08:20:15.758Z,6.40
2022-07-28T08:22:22.322Z,4.72
2022-07-28T08:24:33.364Z,4.05
2022-07-28T08:26:38.860Z,3.67
2022-07-28T08:28:45.610Z,3.67
2022-07-28T08:30:52.112Z,3.33
2022-07-28T08:32:57.354Z,6.07
2022-07-28T08:35:30.251Z,6.28
2022-07-28T08:37:30.364Z,3.85
2022-07-28T08:39:35.357Z,3.83
2022-07-28T08:42:15.747Z,3.78
2022-07-28T08:44:22.127Z,4.80
2022-07-28T08:46:26.889Z,3.67
2022-07-28T08:48:35.948Z,3.70
2022-07-28T08:50:42.598Z,4.97
2022-07-28T08:52:47.558Z,2.90
2022-07-28T08:54:53.587Z,4.03
2022-07-28T08:56:58.200Z,6.15
2022-07-28T08:59:02.730Z,4.68
2022-07-28T09:01:09.495Z,4.57
2022-07-28T09:03:14.592Z,7.32
2022-07-28T09:05:19.260Z,4.85
2022-07-28T09:07:24.845Z,3.28
2022-07-28T09:09:29.132Z,4.30
2022-07-28T09:11:33.581Z,3.80
2022-07-28T09:13:38.539Z,6.18
2022-07-28T09:15:47.955Z,4.03
2022-07-28T09:17:52.602Z,4.43
2022-07-28T09:19:57.894Z,3.60
2022-07-28T09:22:04.680Z,2.90
2022-07-28T09:24:11.529Z,4.25
2022-07-28T09:26:18.254Z,3.03
2022-07-28T09:28:23.646Z,3.20
2022-07-28T09:30:33.583Z,4.63
2022-07-28T09:32:40.451Z,3.50
2022-07-28T09:34:48.001Z,3.00
2022-07-28T09:36:56.417Z,2.90
2022-07-28T09:39:02.674Z,5.90
2022-07-28T09:41:10.295Z,3.38
2022-07-28T09:43:14.742Z,3.85
2022-07-28T09:45:23.276Z,3.53
2022-07-28T09:47:29.883Z,3.58
2022-07-28T09:49:44.807Z,3.65
2022-07-28T09:52:02.287Z,7.53
2022-07-28T09:54:17.789Z,3.97
2022-07-28T09:56:24.496Z,5.07
2022-07-28T09:58:30.810Z,4.35
2022-07-28T10:00:35.976Z,5.57
2022-07-28T10:02:41.256Z,3.70
2022-07-28T10:04:53.817Z,3.67
2022-07-28T10:07:11.509Z,5.45
2022-07-28T10:09:16.560Z,6.03
2022-07-28T10:11:25.723Z,3.38
2022-07-28T10:13:30.324Z,7.63
2022-07-28T10:15:50.994Z,4.72
2022-07-28T10:17:56.367Z,4.78
2022-07-28T10:20:02.020Z,3.95
2022-07-28T10:22:07.212Z,4.25
2022-07-28T10:24:11.922Z,5.05
2022-07-28T10:26:18.824Z,5.03
2022-07-28T10:28:25.042Z,3.25
2022-07-28T10:30:32.604Z,5.90
2022-07-28T10:32:45.879Z,6.03
2022-07-28T10:35:02.914Z,7.70
2022-07-28T10:37:09.971Z,6.15
2022-07-28T10:39:18.199Z,4.45
2022-07-28T10:41:22.576Z,5.95
2022-07-28T10:43:29.151Z,4.60
2022-07-28T10:46:03.288Z,4.00
2022-07-28T10:48:00.895Z,6.75
2022-07-28T10:50:07.011Z,5.32
2022-07-28T10:52:37.699Z,5.75
2022-07-28T10:54:45.213Z,5.78
2022-07-28T10:59:35.920Z,5.75
2022-07-28T11:01:50.194Z,9.57
2022-07-28T11:03:57.146Z,8.18
2022-07-28T11:06:19.972Z,6.00
2022-07-28T11:08:32.510Z,7.50
2022-07-28T11:10:50.934Z,14.52
2022-07-28T11:12:56.852Z,9.00
2022-07-28T11:15:18.309Z,8.32
2022-07-28T11:17:24.410Z,8.77
2022-07-28T11:20:25.025Z,12.07
2022-07-28T11:22:30.309Z,9.70
2022-07-28T11:25:19.108Z,11.25
2022-07-28T11:27:57.892Z,15.65
2022-07-28T11:30:02.612Z,13.23
2022-07-28T11:32:11.340Z,14.50
2022-07-28T11:34:17.979Z,10.43
2022-07-28T11:36:22.599Z,10.27
2022-07-28T11:38:29.411Z,10.23
2022-07-28T11:40:47.703Z,8.57
2022-07-28T11:42:52.376Z,11.05
2022-07-28T11:45:20.431Z,9.93
2022-07-28T11:47:30.981Z,9.05
2022-07-28T11:49:35.456Z,11.02
2022-07-28T11:51:51.360Z,12.52
2022-07-28T11:53:59.161Z,13.68
2022-07-28T11:56:06.368Z,10.63
2022-07-28T11:58:25.834Z,8.68
2022-07-28T12:00:33.968Z,9.77
2022-07-28T12:02:39.499Z,9.73
2022-07-28T12:04:46.584Z,7.75
2022-07-28T12:06:53.294Z,8.27
2022-07-28T12:09:00.657Z,9.65
2022-07-28T12:11:07.269Z,9.50
2022-07-28T12:13:13.258Z,12.40
2022-07-28T12:15:18.327Z,13.00
2022-07-28T12:17:26.529Z,9.60
2022-07-28T12:19:33.879Z,10.85
2022-07-28T12:21:53.586Z,10.30
2022-07-28T12:24:01.587Z,11.60
2022-07-28T12:26:10.134Z,10.98
2022-07-28T12:28:19.240Z,10.77
2022-07-28T12:30:31.034Z,11.63
2022-07-28T12:32:37.597Z,15.07
2022-07-28T12:34:43.379Z,13.02
2022-07-28T12:36:47.959Z,11.57
2022-07-28T12:38:55.080Z,14.30
2022-07-28T12:40:59.780Z,15.65
2022-07-28T12:43:06.612Z,17.88
2022-07-28T12:45:11.497Z,16.70
2022-07-28T12:47:21.872Z,18.67
2022-07-28T12:49:26.362Z,20.73
2022-07-28T12:51:42.481Z,23.20
2022-07-28T12:53:53.374Z,17.73
2022-07-28T12:56:06.544Z,18.58
2022-07-28T12:58:24.831Z,21.42
2022-07-28T13:00:32.768Z,21.63
2022-07-28T13:02:40.600Z,25.05
2022-07-28T13:04:50.055Z,25.38
2022-07-28T13:06:58.248Z,26.95
2022-07-28T13:09:03.773Z,33.47
2022-07-28T13:11:17.347Z,23.90
2022-07-28T13:13:45.813Z,17.58
2022-07-28T13:16:14.928Z,25.13
2022-07-28T13:18:19.953Z,18.02
2022-07-28T13:20:25.394Z,16.50
2022-07-28T13:22:32.612Z,16.73
2022-07-28T13:24:39.105Z,18.73
2022-07-28T13:26:45.774Z,13.32
2022-07-28T13:28:52.631Z,15.43
2022-07-28T13:30:58.849Z,17.13
2022-07-28T13:33:03.764Z,14.25
2022-07-28T13:35:15.123Z,13.10
2022-07-28T13:37:22.300Z,13.43
2022-07-28T13:39:26.677Z,16.30
2022-07-28T13:41:56.704Z,13.60
2022-07-28T13:44:00.003Z,14.15
2022-07-28T13:46:04.667Z,12.30
2022-07-28T13:48:11.889Z,11.52
2022-07-28T13:50:18.991Z,12.05
2022-07-28T13:52:27.727Z,11.70
2022-07-28T13:54:40.792Z,10.07
2022-07-28T13:56:47.200Z,9.27
2022-07-28T13:58:51.711Z,11.23
2022-07-28T14:00:57.887Z,9.77
2022-07-28T14:03:08.400Z,10.68
2022-07-28T14:05:13.978Z,10.35
2022-07-28T14:07:22.254Z,9.13
2022-07-28T14:09:28.945Z,11.18
2022-07-28T14:11:34.513Z,8.60
2022-07-28T14:13:42.763Z,8.02
2022-07-28T14:15:49.313Z,9.20
2022-07-28T14:17:53.924Z,8.32
2022-07-28T14:20:00.985Z,9.75
2022-07-28T14:22:12.231Z,9.52
2022-07-28T14:24:18.191Z,9.77
2022-07-28T14:26:39.848Z,8.07
2022-07-28T14:28:46.419Z,10.50
2022-07-28T14:30:52.720Z,9.95
2022-07-28T14:33:00.258Z,7.68
2022-07-28T14:35:04.701Z,7.60
2022-07-28T14:37:09.517Z,8.13
2022-07-28T14:39:16.299Z,8.27
2022-07-28T14:41:22.729Z,11.10
2022-07-28T14:43:27.600Z,8.90
2022-07-28T14:45:34.535Z,7.40
2022-07-28T14:48:01.023Z,9.15
2022-07-28T14:50:06.396Z,8.10
2022-07-28T14:52:12.991Z,10.50
2022-07-28T14:54:19.507Z,10.40
2022-07-28T14:56:24.748Z,9.70
2022-07-28T14:58:31.663Z,10.32
2022-07-28T15:00:36.478Z,9.45
2022-07-28T15:02:41.011Z,9.40
2022-07-28T15:04:47.906Z,12.75
2022-07-28T15:06:54.011Z,9.23
2022-07-28T15:08:59.449Z,7.13
2022-07-28T15:11:03.917Z,7.47
2022-07-28T15:13:10.732Z,8.48
2022-07-28T15:15:15.170Z,8.60
2022-07-28T15:17:21.948Z,8.15
2022-07-28T15:19:28.327Z,8.82
2022-07-28T15:21:36.366Z,10.70
2022-07-28T15:23:40.957Z,12.43
2022-07-28T15:25:47.975Z,9.18
2022-07-28T15:27:52.605Z,7.88
2022-07-28T15:29:59.931Z,8.50
2022-07-28T15:32:12.349Z,9.13
2022-07-28T15:34:18.336Z,9.40
2022-07-28T15:36:26.219Z,10.70
2022-07-28T15:38:32.622Z,10.15
2022-07-28T15:40:36.996Z,11.50
2022-07-28T15:42:42.686Z,9.90
2022-07-28T15:44:47.386Z,7.50
2022-07-28T15:46:52.184Z,9.43
2022-07-28T15:48:57.905Z,8.20
2022-07-28T15:51:04.423Z,9.13
2022-07-28T15:53:08.888Z,10.75
2022-07-28T15:55:14.877Z,8.80
2022-07-28T15:57:21.219Z,8.13
2022-07-28T15:59:26.508Z,9.18
2022-07-28T16:01:53.255Z,8.32
2022-07-28T16:04:00.041Z,8.32
2022-07-28T16:06:04.825Z,10.38
2022-07-28T16:08:11.345Z,10.32
2022-07-28T16:10:18.447Z,9.63
2022-07-28T16:12:27.029Z,9.02
2022-07-28T16:14:33.992Z,9.68
2022-07-28T16:16:40.923Z,8.75
2022-07-28T16:18:45.726Z,9.18
2022-07-28T16:20:52.365Z,7.57
2022-07-28T16:22:59.572Z,7.55
2022-07-28T16:25:04.072Z,9.32
2022-07-28T16:27:10.812Z,8.90
2022-07-28T16:29:17.323Z,9.77
2022-07-28T16:31:21.851Z,7.45
2022-07-28T16:33:33.552Z,9.10
2022-07-28T16:35:40.518Z,8.60
2022-07-28T16:37:45.003Z,9.55
2022-07-28T16:39:51.670Z,8.32
2022-07-28T16:41:56.147Z,9.05
2022-07-28T16:44:02.789Z,10.15
2022-07-28T16:46:07.156Z,8.23
2022-07-28T16:48:14.255Z,10.35
2022-07-28T16:50:20.109Z,8.85
2022-07-28T16:52:26.952Z,10.30
2022-07-28T16:54:33.268Z,7.82
2022-07-28T16:56:38.073Z,7.88
2022-07-28T16:58:44.324Z,8.93
2022-07-28T17:00:51.373Z,7.65
2022-07-28T17:02:55.791Z,10.50
2022-07-28T17:05:02.285Z,9.50
2022-07-28T17:07:07.935Z,7.88
2022-07-28T17:09:13.364Z,8.80
2022-07-28T17:11:20.302Z,8.20
2022-07-28T17:13:29.526Z,8.75
2022-07-28T17:15:34.790Z,12.60
2022-07-28T17:17:41.314Z,9.60
2022-07-28T17:19:51.038Z,13.07
2022-07-28T17:21:55.476Z,8.20
2022-07-28T17:24:02.115Z,13.00
2022-07-28T17:28:33.969Z,10.23
2022-07-28T17:30:40.759Z,10.48
2022-07-28T17:32:47.035Z,9.57
2022-07-28T17:34:55.389Z,11.15
2022-07-28T17:36:59.922Z,9.60
2022-07-28T17:39:08.062Z,11.10
2022-07-28T17:41:12.517Z,11.10
2022-07-28T17:43:17.268Z,9.48
2022-07-28T17:45:21.830Z,8.07
2022-07-28T17:47:35.778Z,10.60
2022-07-28T17:49:45.530Z,11.23
2022-07-28T17:51:52.555Z,15.68
2022-07-28T17:53:57.657Z,16.48
2022-07-28T17:56:06.005Z,20.33
2022-07-28T17:58:19.819Z,26.52
2022-07-28T18:00:28.681Z,24.45
2022-07-28T18:02:37.057Z,26.10
2022-07-28T18:04:43.725Z,26.08
2022-07-28T18:06:50.042Z,30.85
2022-07-28T18:08:55.901Z,28.98
2022-07-28T18:11:02.947Z,26.88
2022-07-28T18:13:08.615Z,27.10
2022-07-28T18:15:18.271Z,18.40
2022-07-28T18:17:26.361Z,16.80
2022-07-28T18:19:34.613Z,13.50
2022-07-28T18:21:50.973Z,13.48
2022-07-28T18:23:58.223Z,13.38
2022-07-28T18:26:03.409Z,10.35
2022-07-28T18:28:14.447Z,12.05
2022-07-28T18:30:25.116Z,11.30
2022-07-28T18:32:31.022Z,10.18
2022-07-28T18:34:39.025Z,9.40
2022-07-28T18:36:48.850Z,10.88
2022-07-28T18:38:55.771Z,9.75
2022-07-28T18:41:04.228Z,13.20
2022-07-28T18:43:13.242Z,11.00
2022-07-28T18:45:20.171Z,10.70
2022-07-28T18:47:31.071Z,10.52
2022-07-28T18:49:38.669Z,10.02
2022-07-28T18:51:52.958Z,9.82
2022-07-28T18:54:01.882Z,9.40
2022-07-28T18:56:09.212Z,10.38
2022-07-28T18:58:20.863Z,9.48
2022-07-28T19:00:32.771Z,10.20
2022-07-28T19:02:41.157Z,11.43
2022-07-28T19:04:48.088Z,11.45
2022-07-28T19:06:55.853Z,10.32
2022-07-28T19:09:02.205Z,10.43
2022-07-28T19:11:09.862Z,10.05
2022-07-28T19:13:21.571Z,12.27
2022-07-28T19:15:30.382Z,9.18
2022-07-28T19:17:41.595Z,12.40
2022-07-28T19:19:55.995Z,10.98
2022-07-28T19:22:07.397Z,10.88
2022-07-28T19:24:15.382Z,8.07
2022-07-28T19:26:31.295Z,11.52
2022-07-28T19:28:42.494Z,9.38
2022-07-28T19:30:49.783Z,8.02
2022-07-28T19:32:55.617Z,10.23
2022-07-28T19:35:02.788Z,10.45
2022-07-28T19:37:09.618Z,10.77
2022-07-28T19:39:23.949Z,9.35
2022-07-28T19:41:32.373Z,11.73
2022-07-28T19:43:37.268Z,10.20
2022-07-28T19:45:44.041Z,8.48
2022-07-28T19:47:49.668Z,9.85
2022-07-28T19:49:54.380Z,13.95
2022-07-28T19:52:01.402Z,11.93
2022-07-28T19:54:07.703Z,11.63
2022-07-28T19:56:13.071Z,10.68
2022-07-28T19:58:25.305Z,11.02
2022-07-28T20:00:31.858Z,8.38
2022-07-28T20:02:37.166Z,11.57
2022-07-28T20:04:43.959Z,11.05
2022-07-28T20:06:55.759Z,8.70
2022-07-28T20:09:00.980Z,9.75
2022-07-28T20:11:11.948Z,11.15
2022-07-28T20:13:20.275Z,9.05
2022-07-28T20:15:26.999Z,10.88
2022-07-28T20:17:46.797Z,11.63
2022-07-28T20:19:53.387Z,16.17
2022-07-28T20:21:58.377Z,12.05
2022-07-28T20:24:06.424Z,10.23
2022-07-28T20:26:13.171Z,12.00
2022-07-28T20:28:17.523Z,12.32
2022-07-28T20:30:24.793Z,13.45
2022-07-28T20:32:29.213Z,16.92
2022-07-28T20:34:33.954Z,18.63
2022-07-28T20:36:40.407Z,16.40
2022-07-28T20:38:48.754Z,15.48
2022-07-28T20:40:53.545Z,15.35
2022-07-28T20:43:00.430Z,14.32
2022-07-28T20:45:05.186Z,15.43
2022-07-28T20:47:11.291Z,15.55
2022-07-28T20:49:18.845Z,14.35
2022-07-28T20:51:51.158Z,15.40
2022-07-28T20:53:56.062Z,13.82
2022-07-28T20:56:03.565Z,12.85
2022-07-28T20:58:08.792Z,12.68
2022-07-28T21:00:13.706Z,14.68
2022-07-28T21:02:21.518Z,15.85
2022-07-28T21:04:28.456Z,13.05
2022-07-28T21:06:34.226Z,15.50
2022-07-28T21:08:44.287Z,13.77
2022-07-28T21:10:50.630Z,15.65
2022-07-28T21:12:56.276Z,13.98
2022-07-28T21:15:02.405Z,13.73
2022-07-28T21:17:09.388Z,13.15
2022-07-28T21:19:13.796Z,14.13
2022-07-28T21:21:20.132Z,18.65
2022-07-28T21:23:26.488Z,15.10
2022-07-28T21:25:34.003Z,14.07
2022-07-28T21:27:51.869Z,17.05
2022-07-28T21:32:04.931Z,14.95
2022-07-28T21:34:13.008Z,15.90
2022-07-28T21:36:19.411Z,15.38
2022-07-28T21:38:24.161Z,16.67
2022-07-28T21:40:33.174Z,17.83
2022-07-28T21:42:39.366Z,20.50
2022-07-28T21:44:43.957Z,14.63
2022-07-28T21:46:50.792Z,14.70
2022-07-28T21:48:56.118Z,16.38
2022-07-28T21:51:00.683Z,14.65
2022-07-28T21:53:06.880Z,17.05
2022-07-28T21:55:13.258Z,20.38
2022-07-28T21:57:20.880Z,19.55
2022-07-28T21:59:31.518Z,22.92
2022-07-28T22:01:38.019Z,24.30
2022-07-28T22:03:44.395Z,17.73
2022-07-28T22:05:50.444Z,14.10
2022-07-28T22:07:56.892Z,15.27
2022-07-28T22:10:01.271Z,16.13
2022-07-28T22:12:08.442Z,14.48
2022-07-28T22:14:15.443Z,19.05
2022-07-28T22:16:20.441Z,18.55
2022-07-28T22:18:27.973Z,16.35
2022-07-28T22:20:34.406Z,16.20
2022-07-28T22:22:39.153Z,14.02
2022-07-28T22:24:45.812Z,21.77
2022-07-28T22:26:52.565Z,23.52
2022-07-28T22:28:56.948Z,17.10
2022-07-28T22:31:09.540Z,19.33
2022-07-28T22:33:15.969Z,32.25
2022-07-28T22:35:20.645Z,42.22
2022-07-28T22:37:26.882Z,47.38
2022-07-28T22:39:31.151Z,40.72
2022-07-28T22:41:38.026Z,26.55
2022-07-28T22:43:45.695Z,15.95
2022-07-28T22:45:52.065Z,16.00
2022-07-28T22:47:56.436Z,17.83
2022-07-28T22:50:02.835Z,17.35
2022-07-28T22:52:08.800Z,16.33
2022-07-28T22:54:13.856Z,18.60
2022-07-28T22:56:20.633Z,18.15
2022-07-28T22:58:27.587Z,14.80
2022-07-28T23:00:31.990Z,13.85
2022-07-28T23:02:37.851Z,14.65
2022-07-28T23:04:42.571Z,14.35
2022-07-28T23:06:46.979Z,16.17
2022-07-28T23:08:51.385Z,15.60
2022-07-28T23:10:57.811Z,23.85
2022-07-28T23:13:02.515Z,17.55
2022-07-28T23:15:11.227Z,18.67
2022-07-28T23:17:17.321Z,22.10
2022-07-28T23:19:22.172Z,22.77
2022-07-28T23:21:28.534Z,22.13
2022-07-28T23:23:35.026Z,18.73
2022-07-28T23:25:41.507Z,21.17
2022-07-28T23:27:48.077Z,19.77
2022-07-28T23:29:54.494Z,22.90
2022-07-28T23:31:59.162Z,22.30
2022-07-28T23:34:03.546Z,17.50
2022-07-28T23:36:16.883Z,15.65
2022-07-28T23:38:31.448Z,14.52
2022-07-28T23:40:38.114Z,15.93
2022-07-28T23:42:44.384Z,15.60
2022-07-28T23:44:49.034Z,14.95
2022-07-28T23:46:55.768Z,14.95
2022-07-28T23:49:00.553Z,15.75
2022-07-28T23:51:05.025Z,13.68
2022-07-28T23:53:10.981Z,12.13
2022-07-28T23:55:17.543Z,13.43
2022-07-28T23:57:22.155Z,11.63
2022-07-28T23:59:29.173Z,10.55
